Time;durP1;ratioP1;P1;durP2;ratioP2;P2;SDS_P1;SDS_P2;PMS_P1;PMS_P2;Temp;Humidity;BMP_temperature;BMP_pressure;BME280_temperature;BME280_humidity;BME280_pressure;Samples;Min_cycle;Max_cycle;Signal;HPM_P1;HPM_P2
2021/12/26 07:59:40;;;;;;;8.80;6.28;;;;;;;-0.35;65.91;100525.66;5307230;27;20398;-66
2021/12/26 08:02:17;;;;;;;8.23;5.93;;;;;;;-0.26;65.78;100529.75;5282656;28;20481;-66
2021/12/26 08:04:48;;;;;;;8.00;6.35;;;;;;;-0.59;66.32;100530.06;5285120;28;20031;-66
2021/12/26 08:07:20;;;;;;;7.43;6.15;;;;;;;-0.36;66.64;100534.88;5301243;28;20036;-66
2021/12/26 08:09:51;;;;;;;9.05;6.47;;;;;;;-0.33;66.60;100531.72;5301277;28;20024;-68
2021/12/26 08:12:22;;;;;;;7.95;5.70;;;;;;;-0.47;66.75;100528.28;5300213;28;20032;-66
2021/12/26 08:14:54;;;;;;;9.57;5.85;;;;;;;-0.53;66.78;100531.91;5300658;28;20025;-65
2021/12/26 08:17:25;;;;;;;9.30;6.05;;;;;;;-0.45;66.78;100534.34;5299918;28;20455;-66
2021/12/26 08:19:57;;;;;;;8.20;5.82;;;;;;;-0.23;66.63;100529.31;5300176;28;20031;-67
2021/12/26 08:22:28;;;;;;;8.23;5.70;;;;;;;-0.12;66.40;100535.91;5300699;28;20028;-67
2021/12/26 08:24:59;;;;;;;8.25;6.45;;;;;;;0.02;66.66;100535.75;5299823;28;20484;-67
2021/12/26 08:27:32;;;;;;;6.38;5.57;;;;;;;0.02;66.46;100533.00;5301044;28;20028;-67
2021/12/26 08:30:04;;;;;;;8.90;5.63;;;;;;;0.11;66.32;100531.66;5284382;28;20024;-67
2021/12/26 08:32:39;;;;;;;9.27;6.05;;;;;;;0.22;67.06;100520.78;5278868;28;20476;-66
2021/12/26 08:35:10;;;;;;;8.30;5.68;;;;;;;0.26;65.76;100532.09;5294407;28;20085;-67
2021/12/26 08:37:42;;;;;;;6.95;5.30;;;;;;;0.36;66.13;100531.56;5300542;28;20032;-67
2021/12/26 08:40:14;;;;;;;8.55;6.20;;;;;;;0.40;66.01;100521.84;5300190;28;20024;-68
2021/12/26 08:42:46;;;;;;;10.70;7.20;;;;;;;0.33;66.01;100510.16;5300271;28;20032;-67
2021/12/26 08:45:17;;;;;;;12.02;6.95;;;;;;;0.41;66.24;100520.78;5299941;28;20051;-67
2021/12/26 08:47:49;;;;;;;7.93;5.90;;;;;;;0.41;66.67;100518.06;5299297;28;20349;-66
2021/12/26 08:50:22;;;;;;;8.30;6.28;;;;;;;0.43;66.27;100516.78;5299915;28;20089;-66
2021/12/26 08:52:55;;;;;;;8.32;6.82;;;;;;;0.56;66.33;100515.75;5299480;28;20052;-66
2021/12/26 08:55:27;;;;;;;8.52;5.88;;;;;;;0.37;66.95;100514.13;5299594;28;20471;-66
2021/12/26 08:57:59;;;;;;;6.50;5.57;;;;;;;0.48;66.44;100520.69;5307296;28;20070;-68
2021/12/26 09:00:33;;;;;;;8.27;6.22;;;;;;;0.32;66.64;100525.72;5310790;28;20052;-66
2021/12/26 09:03:06;;;;;;;7.47;5.82;;;;;;;0.40;67.16;100519.94;5300388;28;20376;-66
2021/12/26 09:05:37;;;;;;;8.70;5.68;;;;;;;0.42;67.06;100520.53;5299904;28;20024;-66
2021/12/26 09:08:10;;;;;;;8.40;6.10;;;;;;;0.62;66.92;100513.97;5301879;28;20374;-66
2021/12/26 09:10:43;;;;;;;10.52;6.20;;;;;;;0.61;66.54;100509.56;5287882;28;20029;-67
2021/12/26 09:13:14;;;;;;;10.07;6.07;;;;;;;0.53;67.00;100504.44;5285833;28;20348;-65
2021/12/26 09:15:45;;;;;;;7.80;5.82;;;;;;;0.59;66.91;100515.28;5284961;28;20028;-66
2021/12/26 09:18:17;;;;;;;8.90;5.97;;;;;;;0.57;67.06;100517.41;5286135;28;20077;-66
2021/12/26 09:20:48;;;;;;;11.48;6.18;;;;;;;0.68;66.66;100512.22;5285659;28;20025;-66
2021/12/26 09:23:19;;;;;;;8.80;6.53;;;;;;;0.62;66.82;100513.97;5304289;28;20384;-65
2021/12/26 09:25:50;;;;;;;7.50;5.95;;;;;;;0.67;66.99;100521.47;5306174;28;20032;-66
2021/12/26 09:28:22;;;;;;;10.07;6.03;;;;;;;0.63;67.90;100516.47;5305672;28;20028;-66
2021/12/26 09:30:53;;;;;;;9.75;6.32;;;;;;;0.77;67.86;100519.03;5298314;28;20035;-66
2021/12/26 09:33:25;;;;;;;10.00;6.75;;;;;;;0.76;67.78;100520.06;5302951;28;20028;-66
2021/12/26 09:35:56;;;;;;;9.73;6.78;;;;;;;0.82;67.52;100528.19;5305309;28;20024;-66
2021/12/26 09:38:28;;;;;;;9.73;6.55;;;;;;;0.78;68.34;100517.94;5299685;28;20407;-66
2021/12/26 09:40:59;;;;;;;10.57;7.20;;;;;;;0.83;68.68;100513.44;5289270;28;20379;-66
2021/12/26 09:43:31;;;;;;;9.57;7.20;;;;;;;0.90;68.52;100526.19;5289018;28;20028;-65
2021/12/26 09:46:02;;;;;;;7.53;6.25;;;;;;;0.98;68.42;100525.84;5284927;28;20060;-65
2021/12/26 09:48:57;;;;;;;9.70;6.20;;;;;;;1.00;68.15;100527.28;5284972;28;20021;-65
2021/12/26 09:51:28;;;;;;;10.75;6.97;;;;;;;1.05;68.09;100526.56;5275322;28;20044;-66
2021/12/26 09:54:00;;;;;;;9.13;7.03;;;;;;;1.07;68.20;100533.47;5298411;28;20032;-65
2021/12/26 09:56:31;;;;;;;9.52;6.78;;;;;;;1.18;67.92;100526.34;5305020;28;20391;-65
2021/12/26 09:59:08;;;;;;;10.10;8.07;;;;;;;1.13;68.04;100514.47;5305147;28;20072;-66
2021/12/26 10:01:43;;;;;;;8.82;7.10;;;;;;;1.25;67.93;100510.69;5306233;28;20028;-66
2021/12/26 10:04:24;;;;;;;9.60;6.87;;;;;;;1.34;68.27;100511.16;5305417;28;20103;-66
2021/12/26 10:07:01;;;;;;;12.27;6.95;;;;;;;1.34;67.91;100496.66;5305850;28;20012;-66
2021/12/26 10:09:37;;;;;;;9.50;6.35;;;;;;;1.15;68.20;100494.06;5306107;28;20376;-66
2021/12/26 10:12:13;;;;;;;8.98;7.38;;;;;;;1.18;68.54;100495.47;5292395;28;20345;-66
2021/12/26 10:14:49;;;;;;;9.45;7.07;;;;;;;1.28;68.58;100491.09;5284699;28;20413;-66
2021/12/26 10:17:27;;;;;;;8.80;5.97;;;;;;;1.39;68.60;100485.84;5300554;28;20069;-67
2021/12/26 10:20:09;;;;;;;9.02;7.70;;;;;;;1.41;69.15;100484.56;5305715;28;20101;-66
2021/12/26 10:22:41;;;;;;;8.98;6.70;;;;;;;1.35;68.00;100481.94;5304231;28;20051;-66
2021/12/26 10:25:15;;;;;;;7.93;7.10;;;;;;;1.45;68.45;100484.91;5304512;28;20047;-66
2021/12/26 10:27:48;;;;;;;9.93;6.75;;;;;;;1.38;68.70;100479.56;5303510;28;20024;-65
2021/12/26 10:30:24;;;;;;;11.32;7.47;;;;;;;1.47;68.88;100475.38;5304578;28;20035;-65
2021/12/26 10:32:59;;;;;;;;;;;;;;;1.69;68.37;100472.06;5288354;28;20050;-65
2021/12/26 10:35:31;;;;;;;9.45;7.10;;;;;;;1.49;68.41;100464.22;5305416;28;19958;-66
2021/12/26 10:38:02;;;;;;;9.73;7.78;;;;;;;1.52;68.72;100469.22;5304615;28;20028;-65
2021/12/26 10:40:35;;;;;;;9.68;7.45;;;;;;;1.65;69.15;100468.13;5304118;28;20040;-66
2021/12/26 10:43:10;;;;;;;9.95;7.70;;;;;;;1.69;68.68;100464.69;5290584;28;20024;-66
2021/12/26 10:45:41;;;;;;;8.88;7.10;;;;;;;1.65;69.21;100466.22;5283047;28;20028;-66
2021/12/26 10:48:12;;;;;;;10.50;7.28;;;;;;;1.72;69.57;100453.25;5284181;28;20027;-66
2021/12/26 10:50:44;;;;;;;11.93;8.73;;;;;;;1.68;69.74;100457.53;5290920;28;20021;-65
2021/12/26 10:53:18;;;;;;;12.93;9.23;;;;;;;1.73;70.33;100449.44;5291076;28;20055;-67
2021/12/26 10:55:51;;;;;;;9.43;7.80;;;;;;;1.64;69.61;100445.44;5304885;28;20136;-67
2021/12/26 10:58:25;;;;;;;12.50;9.32;;;;;;;1.77;69.41;100454.44;5304794;28;20087;-66
2021/12/26 11:00:58;;;;;;;12.50;8.60;;;;;;;1.79;69.78;100452.28;5304193;28;20073;-66
2021/12/26 11:03:30;;;;;;;14.52;8.75;;;;;;;1.83;69.49;100437.06;5304121;28;20063;-66
2021/12/26 11:06:06;;;;;;;30.90;21.27;;;;;;;1.78;69.80;100434.22;5304542;28;20032;-66
2021/12/26 11:08:42;;;;;;;10.73;8.05;;;;;;;1.78;69.93;100439.69;5298404;28;20464;-66
2021/12/26 11:11:20;;;;;;;;;;;;;;;2.06;70.28;100439.72;5284177;28;20020;-66
2021/12/26 11:14:01;;;;;;;12.75;8.75;;;;;;;2.00;70.38;100429.75;5282905;28;19912;-67
2021/12/26 11:16:39;;;;;;;10.77;8.55;;;;;;;1.94;69.80;100441.66;5283288;28;20366;-66
2021/12/26 11:19:11;;;;;;;10.38;8.30;;;;;;;2.01;70.39;100439.63;5286284;28;20104;-66
2021/12/26 11:21:42;;;;;;;11.32;8.52;;;;;;;2.05;70.04;100440.81;5302781;28;20028;-66
2021/12/26 11:24:14;;;;;;;12.10;9.13;;;;;;;2.03;69.65;100434.75;5290202;28;20365;-66
2021/12/26 11:26:46;;;;;;;11.82;8.48;;;;;;;2.06;70.94;100434.25;5302283;28;20047;-66
2021/12/26 11:29:17;;;;;;;11.93;8.15;;;;;;;1.98;70.52;100423.69;5303559;28;20049;-66
2021/12/26 11:31:54;;;;;;;13.63;8.95;;;;;;;2.07;70.26;100426.88;5304471;28;20471;-66
2021/12/26 11:34:26;;;;;;;11.77;8.93;;;;;;;2.04;70.63;100419.97;5304599;28;20370;-66
2021/12/26 11:36:59;;;;;;;11.15;8.40;;;;;;;2.06;70.68;100422.47;5298511;28;20028;-66
2021/12/26 11:39:31;;;;;;;8.93;8.02;;;;;;;2.05;70.68;100418.94;5303722;28;20027;-66
2021/12/26 11:42:05;;;;;;;12.43;8.52;;;;;;;2.19;70.96;100424.91;5302672;28;20077;-66
2021/12/26 11:44:47;;;;;;;11.13;8.77;;;;;;;2.27;70.56;100437.38;5304413;28;20056;-67
2021/12/26 11:47:39;;;;;;;14.10;9.07;;;;;;;2.27;70.81;100442.84;5303260;28;20472;-66
2021/12/26 11:50:26;;;;;;;11.32;8.82;;;;;;;2.32;70.82;100437.47;5295829;28;20075;-65
2021/12/26 11:53:18;;;;;;;10.95;8.70;;;;;;;2.29;71.10;100427.84;5300161;28;20038;-65
2021/12/26 11:56:16;;;;;;;10.25;8.65;;;;;;;2.30;71.34;100431.41;5300303;28;20107;-66
2021/12/26 11:59:03;;;;;;;15.45;9.93;;;;;;;2.37;71.07;100421.16;5298943;28;20050;-66
2021/12/26 12:01:40;;;;;;;13.88;9.63;;;;;;;2.39;70.96;100416.28;5297450;28;20047;-66
2021/12/26 12:04:21;;;;;;;11.63;8.55;;;;;;;2.44;71.28;100421.84;5295780;28;20016;-66
2021/12/26 12:06:55;;;;;;;13.52;10.35;;;;;;;2.50;70.84;100433.69;5295212;28;20119;-66
2021/12/26 12:09:32;;;;;;;15.25;9.35;;;;;;;2.56;70.77;100427.25;5287112;28;20047;-66
2021/12/26 12:12:08;;;;;;;10.85;8.88;;;;;;;2.54;70.62;100422.03;5282350;28;20024;-67
2021/12/26 12:14:45;;;;;;;13.52;10.45;;;;;;;2.45;71.59;100406.22;5292985;28;20028;-67
2021/12/26 12:17:19;;;;;;;15.85;11.82;;;;;;;2.55;71.63;100400.94;5302881;28;20028;-67
2021/12/26 12:20:15;;;;;;;11.45;9.60;;;;;;;2.68;71.92;100408.00;5299484;28;20032;-67
2021/12/26 12:23:06;;;;;;;;;;;;;;;2.80;71.50;100414.25;5303940;28;20052;-67
2021/12/26 12:25:49;;;;;;;15.18;11.35;;;;;;;2.73;70.83;100413.56;5303043;28;19948;-67
2021/12/26 12:28:24;;;;;;;13.95;10.73;;;;;;;2.72;71.08;100409.19;5300186;28;20044;-66
2021/12/26 12:31:08;;;;;;;14.93;11.32;;;;;;;2.74;71.98;100407.03;5282934;28;20039;-67
2021/12/26 12:33:39;;;;;;;25.23;16.65;;;;;;;2.67;71.46;100412.66;5301582;28;20032;-66
2021/12/26 12:36:26;;;;;;;15.10;11.45;;;;;;;2.78;72.04;100405.44;5301986;28;20039;-66
2021/12/26 12:39:13;;;;;;;14.15;10.75;;;;;;;2.83;72.09;100402.78;5295020;28;20032;-67
2021/12/26 12:41:48;;;;;;;14.80;10.73;;;;;;;2.80;72.27;100398.63;5282274;28;20594;-66
2021/12/26 12:44:44;;;;;;;13.88;10.40;;;;;;;2.80;72.63;100392.31;5282735;28;20376;-66
2021/12/26 12:47:24;;;;;;;11.65;9.45;;;;;;;2.77;72.34;100379.13;5285864;28;20251;-67
2021/12/26 12:50:02;;;;;;;10.15;8.73;;;;;;;2.91;71.84;100382.34;5288618;28;20020;-67
2021/12/26 12:52:50;;;;;;;12.00;9.15;;;;;;;2.94;72.16;100371.75;5287016;28;20028;-67
2021/12/26 12:55:47;;;;;;;11.27;9.77;;;;;;;2.95;72.05;100375.31;5307218;28;20019;-66
2021/12/26 12:58:21;;;;;;;12.73;9.23;;;;;;;2.95;72.43;100373.41;5307090;28;20131;-65
2021/12/26 13:00:52;;;;;;;12.38;10.10;;;;;;;2.90;72.77;100370.56;5306627;28;20533;-65
2021/12/26 13:03:24;;;;;;;14.57;10.48;;;;;;;2.96;72.41;100371.47;5307034;28;20024;-65
2021/12/26 13:05:55;;;;;;;15.20;10.27;;;;;;;3.03;72.51;100358.44;5306590;28;20475;-65
2021/12/26 13:08:27;;;;;;;12.05;10.55;;;;;;;2.94;72.20;100370.88;5305749;28;20069;-65
2021/12/26 13:10:59;;;;;;;11.70;9.88;;;;;;;3.01;71.52;100364.16;5307560;28;20020;-66
2021/12/26 13:13:30;;;;;;;15.95;11.40;;;;;;;2.97;71.89;100365.75;5305999;28;20381;-66
2021/12/26 13:16:04;;;;;;;14.10;9.55;;;;;;;3.03;72.23;100353.78;5306951;28;20069;-66
2021/12/26 13:18:38;;;;;;;12.32;10.60;;;;;;;2.93;72.92;100353.63;5306029;28;20024;-66
2021/12/26 13:21:12;;;;;;;16.77;13.43;;;;;;;2.96;72.42;100355.03;5305902;28;20082;-66
2021/12/26 13:23:46;;;;;;;12.80;10.55;;;;;;;2.94;71.74;100355.31;5305534;28;20016;-67
2021/12/26 13:26:17;;;;;;;11.50;9.48;;;;;;;2.96;71.74;100364.09;5295623;28;20024;-67
2021/12/26 13:28:50;;;;;;;12.00;10.30;;;;;;;2.93;72.30;100359.09;5297367;28;20507;-67
2021/12/26 13:31:23;;;;;;;14.95;10.32;;;;;;;2.99;72.35;100355.38;5285781;28;20059;-67
2021/12/26 13:33:57;;;;;;;14.05;9.45;;;;;;;3.02;72.52;100363.09;5285475;28;20024;-67
2021/12/26 13:36:31;;;;;;;12.98;9.85;;;;;;;3.05;72.38;100345.31;5284739;28;20099;-67
2021/12/26 13:39:05;;;;;;;10.55;9.32;;;;;;;2.89;72.08;100338.78;5285241;28;20028;-66
2021/12/26 13:41:44;;;;;;;13.43;10.20;;;;;;;2.87;72.74;100343.69;5303159;28;20056;-67
2021/12/26 13:44:17;;;;;;;13.43;10.85;;;;;;;2.87;72.66;100335.47;5306519;28;20012;-67
2021/12/26 13:47:00;;;;;;;13.75;10.38;;;;;;;3.00;73.54;100332.38;5306579;28;20024;-67
2021/12/26 13:49:31;;;;;;;15.45;10.45;;;;;;;3.07;72.34;100336.84;5288944;28;20138;-66
2021/12/26 13:52:03;;;;;;;13.13;10.70;;;;;;;3.15;72.59;100330.94;5285098;28;20059;-66
2021/12/26 13:54:48;;;;;;;12.88;10.57;;;;;;;3.09;72.50;100323.72;5305359;28;20031;-66
2021/12/26 13:57:23;;;;;;;12.82;10.77;;;;;;;3.13;72.20;100320.22;5304426;28;20056;-66
2021/12/26 13:59:55;;;;;;;11.93;10.07;;;;;;;3.14;72.84;100326.53;5287698;28;20496;-66
2021/12/26 14:02:32;;;;;;;14.88;12.00;;;;;;;3.14;72.45;100327.34;5284491;28;20031;-66
2021/12/26 14:05:12;;;;;;;14.88;10.65;;;;;;;3.26;72.63;100316.28;5300546;28;20032;-66
2021/12/26 14:07:45;;;;;;;14.35;10.10;;;;;;;3.24;73.03;100321.19;5305482;28;20081;-65
2021/12/26 14:10:22;;;;;;;14.25;11.73;;;;;;;3.19;72.14;100312.91;5302850;28;20052;-66
2021/12/26 14:12:58;;;;;;;16.40;11.60;;;;;;;3.32;76.60;100306.22;5305725;28;20040;-65
2021/12/26 14:15:34;;;;;;;13.68;11.13;;;;;;;3.36;73.30;100302.72;5304695;28;20024;-65
2021/12/26 14:18:08;;;;;;;13.02;10.52;;;;;;;3.22;72.96;100309.63;5303452;28;20034;-66
2021/12/26 14:20:44;;;;;;;14.52;11.02;;;;;;;3.38;72.66;100316.16;5304329;28;20028;-66
2021/12/26 14:23:41;;;;;;;14.57;11.20;;;;;;;3.31;73.79;100310.03;5304575;28;20027;-66
2021/12/26 14:26:14;;;;;;;15.75;12.68;;;;;;;3.09;73.61;100312.75;5305304;28;20488;-65
2021/12/26 14:28:58;;;;;;;13.90;11.68;;;;;;;3.27;73.74;100312.44;5305753;28;20031;-65
2021/12/26 14:31:41;;;;;;;13.00;10.75;;;;;;;3.30;73.64;100320.19;5303780;28;20019;-65
2021/12/26 14:34:20;;;;;;;13.48;11.48;;;;;;;3.30;73.18;100317.44;5280586;28;20379;-65
2021/12/26 14:36:53;;;;;;;14.00;11.55;;;;;;;3.30;73.81;100324.81;5284157;28;20028;-66
2021/12/26 14:39:37;;;;;;;13.18;11.77;;;;;;;3.33;73.48;100318.84;5283526;28;20443;-64
2021/12/26 14:42:09;;;;;;;12.98;11.57;;;;;;;3.23;74.04;100312.13;5284316;28;20020;-65
2021/12/26 14:45:03;;;;;;;14.43;11.27;;;;;;;3.41;73.37;100321.97;5283046;28;20024;-65
2021/12/26 14:47:41;;;;;;;14.82;12.27;;;;;;;3.37;73.98;100320.81;5284695;28;20099;-65
2021/12/26 14:50:19;;;;;;;14.05;11.10;;;;;;;3.35;73.46;100312.03;5283991;28;20372;-65
2021/12/26 14:52:58;;;;;;;14.95;11.45;;;;;;;3.33;73.69;100313.38;5287307;28;20016;-66
2021/12/26 14:55:32;;;;;;;13.98;10.60;;;;;;;3.29;73.91;100314.94;5303751;28;20032;-65
2021/12/26 14:58:08;;;;;;;17.65;11.52;;;;;;;3.16;74.12;100307.94;5304710;28;20071;-65
2021/12/26 15:00:46;;;;;;;14.40;10.77;;;;;;;3.25;74.61;100309.16;5304317;28;20024;-66
2021/12/26 15:03:21;;;;;;;12.52;10.85;;;;;;;3.18;74.31;100300.28;5304968;28;20039;-65
2021/12/26 15:05:56;;;;;;;12.50;11.13;;;;;;;3.23;74.95;100305.84;5303468;28;20365;-66
2021/12/26 15:08:27;;;;;;;11.88;10.65;;;;;;;3.15;73.85;100298.88;5304172;28;20028;-65
2021/12/26 15:10:59;;;;;;;11.93;10.63;;;;;;;3.23;75.34;100298.44;5304802;28;20031;-65
2021/12/26 15:13:38;;;;;;;14.48;12.68;;;;;;;3.24;74.79;100288.28;5303897;28;20400;-65
2021/12/26 15:16:09;;;;;;;15.65;11.80;;;;;;;3.19;75.40;100297.28;5304667;28;20490;-66
2021/12/26 15:18:41;;;;;;;16.58;11.95;;;;;;;3.23;74.86;100292.97;5293082;28;20032;-66
2021/12/26 15:21:12;;;;;;;15.95;13.57;;;;;;;3.25;74.78;100289.97;5282974;28;20059;-65
2021/12/26 15:23:43;;;;;;;12.77;11.40;;;;;;;3.33;74.93;100288.69;5303018;28;20024;-66
2021/12/26 15:26:21;;;;;;;14.15;10.70;;;;;;;3.35;74.90;100292.00;5304325;28;20023;-66
2021/12/26 15:28:53;;;;;;;15.20;13.18;;;;;;;3.24;75.08;100299.25;5303611;28;20753;-65
2021/12/26 15:31:33;;;;;;;18.20;13.93;;;;;;;3.28;75.60;100288.63;5304265;28;20052;-65
2021/12/26 15:34:10;;;;;;;15.05;11.88;;;;;;;3.36;75.11;100291.75;5303701;28;20020;-66
2021/12/26 15:36:44;;;;;;;17.90;13.07;;;;;;;3.39;75.23;100283.00;5303873;28;20120;-65
2021/12/26 15:39:17;;;;;;;14.70;11.80;;;;;;;3.30;75.62;100275.47;5303535;28;20027;-66
2021/12/26 15:41:52;;;;;;;14.45;11.77;;;;;;;3.21;76.23;100278.66;5303204;28;20030;-66
2021/12/26 15:44:26;;;;;;;14.95;13.10;;;;;;;3.22;75.54;100269.38;5304299;28;20463;-66
2021/12/26 15:47:01;;;;;;;14.63;11.80;;;;;;;3.33;75.81;100277.72;5304210;28;20081;-66
2021/12/26 15:49:34;;;;;;;14.57;11.75;;;;;;;3.39;75.43;100263.81;5285006;28;20070;-66
2021/12/26 15:52:06;;;;;;;17.10;10.80;;;;;;;3.31;75.77;100264.28;5283197;28;20025;-65
2021/12/26 15:54:39;;;;;;;13.75;11.82;;;;;;;3.37;75.66;100265.97;5302065;28;20034;-65
2021/12/26 15:57:11;;;;;;;15.40;10.85;;;;;;;3.37;75.94;100270.63;5303227;28;20031;-65
2021/12/26 15:59:42;;;;;;;15.63;11.73;;;;;;;3.37;75.50;100265.97;5303572;28;20072;-66
2021/12/26 16:02:13;;;;;;;14.80;12.10;;;;;;;3.35;75.68;100268.16;5303383;28;20047;-66
2021/12/26 16:04:44;;;;;;;13.70;11.07;;;;;;;3.34;76.54;100268.41;5304101;28;20028;-66
2021/12/26 16:07:17;;;;;;;15.00;12.30;;;;;;;3.31;75.88;100274.41;5299794;28;20025;-66
2021/12/26 16:09:49;;;;;;;12.73;11.00;;;;;;;3.49;76.39;100274.06;5282280;28;20086;-66
2021/12/26 16:12:20;;;;;;;16.10;12.40;;;;;;;3.54;76.00;100270.56;5282786;28;20025;-66
2021/12/26 16:14:51;;;;;;;19.10;12.68;;;;;;;3.47;75.99;100271.59;5303347;28;20426;-65
2021/12/26 16:17:23;;;;;;;16.25;13.00;;;;;;;3.47;76.31;100278.97;5303499;28;20127;-66
2021/12/26 16:19:56;;;;;;;16.95;12.32;;;;;;;3.50;76.51;100275.72;5305246;28;20035;-66
2021/12/26 16:22:27;;;;;;;15.68;12.27;;;;;;;3.42;76.13;100273.44;5308450;28;20024;-66
2021/12/26 16:24:58;;;;;;;15.95;12.75;;;;;;;3.47;76.48;100274.31;5307408;28;20032;-66
2021/12/26 16:27:32;;;;;;;17.13;12.52;;;;;;;3.51;76.16;100271.91;5308022;28;20046;-65
2021/12/26 16:30:05;;;;;;;15.52;12.20;;;;;;;3.46;76.61;100269.13;5307379;28;20024;-66
2021/12/26 16:32:38;;;;;;;14.88;12.55;;;;;;;3.54;76.56;100273.31;5307100;28;20399;-66
2021/12/26 16:35:12;;;;;;;15.00;12.40;;;;;;;3.44;76.47;100271.28;5307479;28;20055;-66
2021/12/26 16:37:44;;;;;;;17.55;13.23;;;;;;;3.35;77.06;100268.16;5307054;28;20145;-66
2021/12/26 16:40:17;;;;;;;16.77;13.30;;;;;;;3.33;77.27;100270.34;5307820;28;20456;-66
2021/12/26 16:42:48;;;;;;;14.88;12.95;;;;;;;3.42;77.75;100271.53;5307751;28;20027;-66
2021/12/26 16:45:20;;;;;;;15.77;13.88;;;;;;;3.52;77.14;100267.25;5306578;28;20024;-66
2021/12/26 16:47:51;;;;;;;17.20;13.20;;;;;;;3.58;77.17;100279.91;5302291;28;20119;-65
2021/12/26 16:50:24;;;;;;;17.92;13.75;;;;;;;3.60;77.44;100270.34;5302017;28;20028;-66
2021/12/26 16:52:55;;;;;;;16.88;13.25;;;;;;;3.61;77.70;100265.72;5302138;28;20021;-66
2021/12/26 16:55:26;;;;;;;15.63;13.82;;;;;;;3.64;77.64;100265.19;5286070;28;20017;-65
2021/12/26 16:57:59;;;;;;;15.25;13.25;;;;;;;3.68;77.38;100264.44;5287655;28;20041;-64
2021/12/26 17:00:30;;;;;;;18.42;13.82;;;;;;;3.65;77.81;100256.69;5306363;28;20094;-66
2021/12/26 17:03:02;;;;;;;16.00;13.23;;;;;;;3.69;77.85;100254.28;5307539;28;20020;-65
2021/12/26 17:05:34;;;;;;;19.48;14.55;;;;;;;3.65;78.20;100255.88;5306048;28;20097;-65
2021/12/26 17:08:08;;;;;;;17.33;13.85;;;;;;;3.60;77.82;100253.06;5307459;28;20024;-66
2021/12/26 17:10:40;;;;;;;16.65;14.13;;;;;;;3.64;78.01;100251.50;5306983;28;20028;-66
2021/12/26 17:13:11;;;;;;;15.95;13.38;;;;;;;3.65;78.12;100251.22;5306149;28;20444;-65
2021/12/26 17:15:42;;;;;;;17.10;13.30;;;;;;;3.64;78.61;100248.75;5306920;28;20052;-65
2021/12/26 17:18:13;;;;;;;18.08;13.52;;;;;;;3.73;78.55;100246.34;5307082;28;20032;-65
2021/12/26 17:20:45;;;;;;;17.13;13.45;;;;;;;3.62;78.54;100246.25;5305718;28;20032;-66
2021/12/26 17:23:16;;;;;;;21.70;13.68;;;;;;;3.52;79.45;100242.56;5306950;28;20023;-66
2021/12/26 17:25:48;;;;;;;17.42;13.68;;;;;;;3.71;79.25;100241.16;5306748;28;20028;-66
2021/12/26 17:28:20;;;;;;;21.63;14.68;;;;;;;3.72;80.22;100245.53;5306040;28;20075;-66
2021/12/26 17:30:54;;;;;;;20.80;16.08;;;;;;;3.67;80.45;100240.81;5306353;28;20032;-66
